Opeinde, Netherlands
Current Conditions -  °F | °C
As of 12:07 PM on Tuesday 21 Oct 2014 (Local Time) from EHLW Reporting Station
Overcast Overcast  
Wind Chill: 55°   Ceiling: 1000
Heat Index: 55°   Visibility: 6mi
Dew Point: 54°   Wind: 20mph
Humidity: 94%   Direction: 200°SSW
Pressure: 29.44"   Gusts: NA
Location:  53.13°N, 6.06°E
Report Text: EHLW 211007Z AUTO 20017KT 9999 FEW009 BKN010 OVC012 13/12 Q0997 GRN 21019G30KT 9999 FEW008 SCT010 BKN012 TEMPO 4000 DZRA SCT008 BKN010
Loading
Personal Weather Stations






























Interactive Weather Map
Tropical Storm Tracking
New forecast layout! Learn more

10-Day Weather Forecast

Advertisements
Track Severe Weather on mobile